createdAt,value
2023-05-20T00:01:38.779Z,100515.70
2023-05-20T00:11:44.698Z,100506.75
2023-05-20T00:21:50.523Z,100501.32
2023-05-20T00:31:56.193Z,100506.05
2023-05-20T00:42:03.605Z,100501.66
2023-05-20T00:52:10.985Z,100507.48
2023-05-20T01:02:17.197Z,100503.23
2023-05-20T01:12:28.288Z,100504.48
2023-05-20T01:22:33.938Z,100499.84
2023-05-20T01:32:44.927Z,100498.63
2023-05-20T01:42:53.651Z,100494.19
2023-05-20T01:52:59.528Z,100488.64
2023-05-20T02:03:05.425Z,100479.98
2023-05-20T02:13:11.175Z,100473.93
2023-05-20T02:23:16.971Z,100467.95
2023-05-20T02:33:23.573Z,100461.10
2023-05-20T02:43:29.251Z,100463.79
2023-05-20T02:53:34.980Z,100467.85
2023-05-20T03:03:40.870Z,100474.48
2023-05-20T03:13:46.795Z,100474.46
2023-05-20T03:23:52.686Z,100471.48
2023-05-20T03:33:58.447Z,100471.52
2023-05-20T03:44:04.286Z,100487.41
2023-05-20T03:54:10.154Z,100491.05
2023-05-20T04:04:15.928Z,100497.04
2023-05-20T04:14:22.013Z,100513.13
2023-05-20T04:24:28.062Z,100511.85
2023-05-20T04:34:35.335Z,100509.58
2023-05-20T04:44:42.363Z,100503.98
2023-05-20T04:54:48.417Z,100499.46
2023-05-20T05:04:54.465Z,100503.08
2023-05-20T05:15:00.434Z,100507.83
2023-05-20T05:25:06.816Z,100513.98
2023-05-20T05:35:13.182Z,100520.33
2023-05-20T05:45:18.938Z,100519.89
2023-05-20T05:55:24.950Z,100530.33
2023-05-20T06:05:32.108Z,100535.09
2023-05-20T06:15:38.085Z,100537.51
2023-05-20T06:25:43.829Z,100539.05
2023-05-20T06:35:50.025Z,100531.95
2023-05-20T06:45:56.062Z,100521.29
2023-05-20T06:56:02.208Z,100515.39
2023-05-20T07:06:08.055Z,100510.02
2023-05-20T07:16:13.733Z,100507.47
2023-05-20T07:26:19.517Z,100499.89
2023-05-20T07:36:25.445Z,100495.08
2023-05-20T07:46:31.688Z,100500.27
2023-05-20T07:56:37.575Z,100504.27
2023-05-20T08:06:44.643Z,100496.34
2023-05-20T08:16:52.269Z,100483.25
2023-05-20T08:26:59.650Z,100473.40
2023-05-20T08:37:05.689Z,100462.46
2023-05-20T08:47:12.022Z,100443.89
2023-05-20T08:57:17.973Z,100454.05
2023-05-20T09:07:30.537Z,100455.25
2023-05-20T09:17:38.535Z,100453.66
2023-05-20T09:27:44.404Z,100445.16
2023-05-20T09:37:52.864Z,100435.89
2023-05-20T09:48:00.856Z,100434.04
2023-05-20T09:58:06.992Z,100435.42
2023-05-20T10:08:37.537Z,100435.65
2023-05-20T10:18:56.336Z,100427.20
2023-05-20T10:29:02.325Z,100428.55
2023-05-20T10:39:08.263Z,100425.21
2023-05-20T10:49:25.007Z,100412.38
2023-05-20T10:59:33.494Z,100401.33
2023-05-20T11:09:40.058Z,100388.01
2023-05-20T11:19:46.360Z,100379.13
2023-05-20T11:29:53.573Z,100361.28
2023-05-20T11:40:09.802Z,100354.17
2023-05-20T11:50:19.693Z,100349.02
2023-05-20T12:00:29.158Z,100342.32
2023-05-20T12:10:38.111Z,100345.28
2023-05-20T12:20:43.873Z,100332.42
2023-05-20T12:30:49.573Z,100319.05
2023-05-20T12:40:55.352Z,100314.13
2023-05-20T12:51:01.581Z,100306.93
2023-05-20T13:01:07.375Z,100305.39
2023-05-20T13:11:13.240Z,100290.53
2023-05-20T13:21:19.226Z,100272.42
2023-05-20T13:31:25.828Z,100271.67
2023-05-20T13:41:31.759Z,100259.95
2023-05-20T13:51:37.444Z,100257.66
2023-05-20T14:01:45.648Z,100254.43
2023-05-20T14:11:52.216Z,100244.14
2023-05-20T14:21:59.010Z,100231.94
2023-05-20T14:32:05.266Z,100224.09
2023-05-20T14:42:11.105Z,100214.77
2023-05-20T14:52:17.142Z,100214.50
2023-05-20T15:02:23.028Z,100196.91
2023-05-20T15:12:28.949Z,100187.63
2023-05-20T15:22:34.986Z,100175.88
2023-05-20T15:32:41.491Z,100174.14
2023-05-20T15:42:47.616Z,100165.60
2023-05-20T15:52:54.138Z,100161.53
2023-05-20T16:02:59.970Z,100164.16
2023-05-20T16:13:06.262Z,100165.02
2023-05-20T16:23:12.336Z,100158.67
2023-05-20T16:33:18.555Z,100158.70
2023-05-20T16:43:24.986Z,100154.63
2023-05-20T16:53:30.823Z,100147.42
2023-05-20T17:03:37.427Z,100138.63
2023-05-20T17:13:43.278Z,100142.83
2023-05-20T17:23:49.643Z,100148.87
2023-05-20T17:33:55.459Z,100144.27
2023-05-20T17:44:01.626Z,100148.17
2023-05-20T17:54:07.654Z,100154.16
2023-05-20T18:04:13.365Z,100157.99
2023-05-20T18:14:22.754Z,100157.07
2023-05-20T18:24:28.718Z,100160.62
2023-05-20T18:34:34.728Z,100153.96
2023-05-20T18:44:40.420Z,100157.17
2023-05-20T18:54:46.111Z,100159.80
2023-05-20T19:04:51.922Z,100164.57
2023-05-20T19:14:58.221Z,100160.58
2023-05-20T19:25:05.280Z,100168.68
2023-05-20T19:35:11.935Z,100163.66
2023-05-20T19:45:17.845Z,100168.40
2023-05-20T19:55:23.999Z,100168.93
2023-05-20T20:05:30.716Z,100168.73
2023-05-20T20:15:37.048Z,100168.28
2023-05-20T20:25:44.134Z,100163.02
2023-05-20T20:35:50.593Z,100164.86
2023-05-20T20:45:56.431Z,100178.98
2023-05-20T20:56:02.254Z,100189.00
2023-05-20T21:06:08.443Z,100195.31
2023-05-20T21:16:14.784Z,100194.12
2023-05-20T21:26:21.975Z,100191.62
2023-05-20T21:36:27.765Z,100195.33
2023-05-20T21:46:33.805Z,100198.70
2023-05-20T21:56:40.203Z,100193.79
2023-05-20T22:06:45.913Z,100193.71
2023-05-20T22:16:51.824Z,100189.29
2023-05-20T22:26:58.217Z,100193.42
2023-05-20T22:37:04.285Z,100191.63
2023-05-20T22:47:10.141Z,100188.44
2023-05-20T22:57:17.137Z,100191.70
2023-05-20T23:07:23.798Z,100189.15
2023-05-20T23:17:29.809Z,100189.33
2023-05-20T23:27:36.052Z,100175.73
2023-05-20T23:37:42.254Z,100173.91
2023-05-20T23:47:48.176Z,100171.30
2023-05-20T23:57:53.967Z,100172.22
